sensor_id;sensor_type;location;lat;lon;timestamp;pressure;altitude;pressure_sealevel;temperature;humidity
61109;BME280;46995;55.740;37.402;2023-05-01T00:22:25;98600.59;;;7.70;82.08
61109;BME280;46995;55.740;37.402;2023-05-01T01:54:34;98538.09;;;7.63;82.20
61109;BME280;46995;55.740;37.402;2023-05-01T01:57:31;98438.50;;;7.03;82.37
61109;BME280;46995;55.740;37.402;2023-05-01T02:09:43;98479.44;;;7.24;82.23
61109;BME280;46995;55.740;37.402;2023-05-01T02:17:27;98476.69;;;7.36;81.17
61109;BME280;46995;55.740;37.402;2023-05-01T02:19:54;98551.94;;;7.94;81.13
61109;BME280;46995;55.740;37.402;2023-05-01T02:22:24;98505.31;;;7.58;80.69
61109;BME280;46995;55.740;37.402;2023-05-01T02:25:01;98491.06;;;7.60;81.47
61109;BME280;46995;55.740;37.402;2023-05-01T02:27:34;98479.88;;;7.58;81.41
61109;BME280;46995;55.740;37.402;2023-05-01T02:30:03;98472.56;;;7.52;81.01
61109;BME280;46995;55.740;37.402;2023-05-01T02:32:32;98497.03;;;7.53;81.25
61109;BME280;46995;55.740;37.402;2023-05-01T02:35:01;98511.53;;;7.47;81.49
61109;BME280;46995;55.740;37.402;2023-05-01T02:37:30;98573.63;;;7.68;81.63
61109;BME280;46995;55.740;37.402;2023-05-01T02:40:02;98538.22;;;7.52;81.86
61109;BME280;46995;55.740;37.402;2023-05-01T02:42:29;98574.88;;;7.73;81.67
61109;BME280;46995;55.740;37.402;2023-05-01T02:45:00;98577.34;;;7.75;81.61
61109;BME280;46995;55.740;37.402;2023-05-01T02:47:31;98540.84;;;7.52;81.30
61109;BME280;46995;55.740;37.402;2023-05-01T02:50:03;98581.09;;;7.82;80.63
61109;BME280;46995;55.740;37.402;2023-05-01T02:52:36;98530.06;;;7.55;80.63
61109;BME280;46995;55.740;37.402;2023-05-01T02:55:40;98582.91;;;7.91;80.48
61109;BME280;46995;55.740;37.402;2023-05-01T02:58:07;98492.03;;;7.40;80.60
61109;BME280;46995;55.740;37.402;2023-05-01T03:00:35;98551.06;;;7.75;80.94
61109;BME280;46995;55.740;37.402;2023-05-01T03:03:01;98569.91;;;7.89;80.53
61109;BME280;46995;55.740;37.402;2023-05-01T03:05:30;98572.94;;;7.94;80.57
61109;BME280;46995;55.740;37.402;2023-05-01T03:07:57;98558.28;;;7.92;80.21
61109;BME280;46995;55.740;37.402;2023-05-01T03:10:23;98562.44;;;8.04;80.38
61109;BME280;46995;55.740;37.402;2023-05-01T03:12:49;98549.13;;;7.96;80.13
61109;BME280;46995;55.740;37.402;2023-05-01T03:15:17;98525.50;;;7.77;80.10
61109;BME280;46995;55.740;37.402;2023-05-01T03:17:43;98555.78;;;8.00;80.20
61109;BME280;46995;55.740;37.402;2023-05-01T03:20:12;98513.47;;;7.74;80.24
61109;BME280;46995;55.740;37.402;2023-05-01T03:22:39;98551.34;;;7.91;80.36
61109;BME280;46995;55.740;37.402;2023-05-01T03:25:06;98587.59;;;8.06;80.66
61109;BME280;46995;55.740;37.402;2023-05-01T03:27:33;98537.94;;;7.75;80.90
61109;BME280;46995;55.740;37.402;2023-05-01T03:29:58;98511.25;;;7.70;80.75
61109;BME280;46995;55.740;37.402;2023-05-01T03:32:24;98570.88;;;7.98;81.00
61109;BME280;46995;55.740;37.402;2023-05-01T03:35:20;98588.41;;;8.17;81.45
61109;BME280;46995;55.740;37.402;2023-05-01T03:37:46;98550.94;;;7.86;80.91
61109;BME280;46995;55.740;37.402;2023-05-01T03:40:22;98588.84;;;8.12;80.96
61109;BME280;46995;55.740;37.402;2023-05-01T03:43:09;98607.53;;;8.19;80.65
61109;BME280;46995;55.740;37.402;2023-05-01T03:45:36;98532.56;;;7.66;80.81
61109;BME280;46995;55.740;37.402;2023-05-01T03:48:02;98550.81;;;7.87;80.92
61109;BME280;46995;55.740;37.402;2023-05-01T03:50:29;98577.50;;;8.02;80.86
61109;BME280;46995;55.740;37.402;2023-05-01T03:52:55;98524.66;;;7.76;80.58
61109;BME280;46995;55.740;37.402;2023-05-01T03:55:21;98567.94;;;8.01;80.52
61109;BME280;46995;55.740;37.402;2023-05-01T03:57:48;98562.84;;;8.09;80.80
61109;BME280;46995;55.740;37.402;2023-05-01T04:00:14;98577.09;;;8.16;80.44
61109;BME280;46995;55.740;37.402;2023-05-01T04:02:41;98584.44;;;8.32;80.43
61109;BME280;46995;55.740;37.402;2023-05-01T04:05:10;98552.16;;;8.20;79.97
61109;BME280;46995;55.740;37.402;2023-05-01T04:07:37;98615.25;;;8.68;79.90
61109;BME280;46995;55.740;37.402;2023-05-01T04:10:03;98553.69;;;8.32;79.52
61109;BME280;46995;55.740;37.402;2023-05-01T04:12:34;98535.53;;;8.29;79.39
61109;BME280;46995;55.740;37.402;2023-05-01T04:15:01;98528.34;;;8.22;79.34
61109;BME280;46995;55.740;37.402;2023-05-01T04:17:29;98566.00;;;8.41;79.23
61109;BME280;46995;55.740;37.402;2023-05-01T04:19:56;98564.34;;;8.40;79.26
61109;BME280;46995;55.740;37.402;2023-05-01T04:22:22;98561.31;;;8.35;79.29
61109;BME280;46995;55.740;37.402;2023-05-01T04:24:48;98532.94;;;8.10;79.48
61109;BME280;46995;55.740;37.402;2023-05-01T04:27:16;98563.22;;;8.24;79.42
61109;BME280;46995;55.740;37.402;2023-05-01T04:29:44;98581.38;;;8.36;79.33
61109;BME280;46995;55.740;37.402;2023-05-01T04:32:11;98558.09;;;8.22;79.48
61109;BME280;46995;55.740;37.402;2023-05-01T04:34:37;98605.00;;;8.56;79.41
61109;BME280;46995;55.740;37.402;2023-05-01T04:37:06;98574.03;;;8.40;79.15
61109;BME280;46995;55.740;37.402;2023-05-01T04:39:33;98546.34;;;8.26;78.87
61109;BME280;46995;55.740;37.402;2023-05-01T04:42:02;98540.28;;;8.16;78.65
61109;BME280;46995;55.740;37.402;2023-05-01T04:44:28;98579.28;;;8.40;79.15
61109;BME280;46995;55.740;37.402;2023-05-01T04:46:54;98616.50;;;8.55;79.22
61109;BME280;46995;55.740;37.402;2023-05-01T04:49:23;98574.31;;;8.18;79.55
61109;BME280;46995;55.740;37.402;2023-05-01T04:51:49;98592.03;;;8.25;79.93
61109;BME280;46995;55.740;37.402;2023-05-01T04:54:17;98644.78;;;8.53;80.08
61109;BME280;46995;55.740;37.402;2023-05-01T04:56:43;98601.59;;;8.26;79.43
61109;BME280;46995;55.740;37.402;2023-05-01T04:59:09;98641.75;;;8.47;79.78
61109;BME280;46995;55.740;37.402;2023-05-01T05:01:35;98583.16;;;8.17;79.65
61109;BME280;46995;55.740;37.402;2023-05-01T05:04:09;98584.81;;;8.27;79.96
61109;BME280;46995;55.740;37.402;2023-05-01T05:06:35;98582.63;;;8.32;79.90
61109;BME280;46995;55.740;37.402;2023-05-01T05:09:03;98530.88;;;8.04;79.73
61109;BME280;46995;55.740;37.402;2023-05-01T05:11:29;98575.94;;;8.28;79.60
61109;BME280;46995;55.740;37.402;2023-05-01T05:13:58;98632.44;;;8.63;80.03
61109;BME280;46995;55.740;37.402;2023-05-01T05:16:24;98543.16;;;8.13;79.83
61109;BME280;46995;55.740;37.402;2023-05-01T05:18:51;98547.16;;;8.17;79.60
61109;BME280;46995;55.740;37.402;2023-05-01T05:21:17;98564.38;;;8.31;79.57
61109;BME280;46995;55.740;37.402;2023-05-01T05:23:48;98567.09;;;8.29;79.38
61109;BME280;46995;55.740;37.402;2023-05-01T05:26:15;98636.69;;;8.64;79.70
61109;BME280;46995;55.740;37.402;2023-05-01T05:28:41;98643.78;;;8.73;79.62
61109;BME280;46995;55.740;37.402;2023-05-01T05:31:07;98599.47;;;8.49;79.71
61109;BME280;46995;55.740;37.402;2023-05-01T05:33:34;98587.06;;;8.41;79.50
61109;BME280;46995;55.740;37.402;2023-05-01T05:36:00;98575.66;;;8.50;79.30
61109;BME280;46995;55.740;37.402;2023-05-01T05:38:31;98611.00;;;8.85;79.41
61109;BME280;46995;55.740;37.402;2023-05-01T05:40:58;98627.09;;;8.82;79.05
61109;BME280;46995;55.740;37.402;2023-05-01T05:43:24;98631.03;;;8.68;79.45
61109;BME280;46995;55.740;37.402;2023-05-01T05:45:50;98635.19;;;8.71;79.58
61109;BME280;46995;55.740;37.402;2023-05-01T05:48:16;98648.16;;;8.82;79.63
61109;BME280;46995;55.740;37.402;2023-05-01T05:50:42;98627.09;;;8.82;79.60
61109;BME280;46995;55.740;37.402;2023-05-01T05:53:11;98600.00;;;8.72;79.29
61109;BME280;46995;55.740;37.402;2023-05-01T05:55:38;98601.63;;;8.82;78.81
61109;BME280;46995;55.740;37.402;2023-05-01T05:58:05;98651.94;;;9.16;78.65
61109;BME280;46995;55.740;37.402;2023-05-01T06:00:31;98645.28;;;9.12;78.27
61109;BME280;46995;55.740;37.402;2023-05-01T06:03:01;98656.41;;;9.16;78.07
61109;BME280;46995;55.740;37.402;2023-05-01T06:05:30;98674.63;;;9.37;77.56
61109;BME280;46995;55.740;37.402;2023-05-01T06:07:56;98647.75;;;9.23;77.36
61109;BME280;46995;55.740;37.402;2023-05-01T06:10:22;98674.84;;;9.43;77.54
61109;BME280;46995;55.740;37.402;2023-05-01T06:12:48;98684.84;;;9.40;77.60
61109;BME280;46995;55.740;37.402;2023-05-01T06:15:15;98670.41;;;9.44;77.51
61109;BME280;46995;55.740;37.402;2023-05-01T06:17:46;98672.66;;;9.66;77.22
61109;BME280;46995;55.740;37.402;2023-05-01T06:20:12;98665.06;;;9.63;76.51
61109;BME280;46995;55.740;37.402;2023-05-01T06:22:39;98676.66;;;9.70;76.79
61109;BME280;46995;55.740;37.402;2023-05-01T06:25:34;98683.25;;;9.84;76.50
61109;BME280;46995;55.740;37.402;2023-05-01T06:28:00;98688.22;;;9.87;75.93
61109;BME280;46995;55.740;37.402;2023-05-01T06:30:28;98692.13;;;9.83;76.16
61109;BME280;46995;55.740;37.402;2023-05-01T06:32:53;98682.69;;;9.80;76.17
61109;BME280;46995;55.740;37.402;2023-05-01T06:35:20;98695.69;;;9.91;76.07
61109;BME280;46995;55.740;37.402;2023-05-01T06:37:45;98704.88;;;9.87;75.95
61109;BME280;46995;55.740;37.402;2023-05-01T06:40:11;98689.31;;;9.84;76.04
61109;BME280;46995;55.740;37.402;2023-05-01T06:42:38;98679.47;;;9.86;75.97
61109;BME280;46995;55.740;37.402;2023-05-01T06:45:06;98712.13;;;10.03;75.16
61109;BME280;46995;55.740;37.402;2023-05-01T06:47:32;98713.44;;;9.89;74.93
61109;BME280;46995;55.740;37.402;2023-05-01T06:50:01;98702.22;;;9.87;74.92
61109;BME280;46995;55.740;37.402;2023-05-01T06:52:29;98696.06;;;9.96;74.91
61109;BME280;46995;55.740;37.402;2023-05-01T06:54:55;98708.34;;;10.05;74.26
61109;BME280;46995;55.740;37.402;2023-05-01T06:57:21;98715.34;;;10.24;74.39
61109;BME280;46995;55.740;37.402;2023-05-01T06:59:46;98714.31;;;10.35;74.27
61109;BME280;46995;55.740;37.402;2023-05-01T07:02:12;98720.56;;;10.51;72.85
61109;BME280;46995;55.740;37.402;2023-05-01T07:04:38;98719.56;;;10.52;72.78
61109;BME280;46995;55.740;37.402;2023-05-01T07:07:04;98731.41;;;10.66;72.92
61109;BME280;46995;55.740;37.402;2023-05-01T07:09:30;98707.94;;;10.63;72.51
61109;BME280;46995;55.740;37.402;2023-05-01T07:11:57;98717.28;;;10.75;72.52
61109;BME280;46995;55.740;37.402;2023-05-01T07:14:23;98707.78;;;10.82;72.00
61109;BME280;46995;55.740;37.402;2023-05-01T07:16:50;98724.59;;;10.99;71.66
61109;BME280;46995;55.740;37.402;2023-05-01T07:19:16;98717.91;;;10.95;71.19
61109;BME280;46995;55.740;37.402;2023-05-01T07:21:42;98715.47;;;10.93;70.97
61109;BME280;46995;55.740;37.402;2023-05-01T07:24:07;98731.78;;;11.15;71.23
61109;BME280;46995;55.740;37.402;2023-05-01T07:26:34;98723.44;;;11.27;69.51
61109;BME280;46995;55.740;37.402;2023-05-01T07:28:59;98720.75;;;11.19;69.56
61109;BME280;46995;55.740;37.402;2023-05-01T07:31:25;98728.50;;;11.21;69.24
61109;BME280;46995;55.740;37.402;2023-05-01T07:33:51;98731.09;;;11.13;69.39
61109;BME280;46995;55.740;37.402;2023-05-01T07:36:17;98731.13;;;11.21;67.83
61109;BME280;46995;55.740;37.402;2023-05-01T07:38:44;98727.25;;;11.33;68.18
61109;BME280;46995;55.740;37.402;2023-05-01T07:41:18;98745.47;;;11.70;67.59
61109;BME280;46995;55.740;37.402;2023-05-01T07:44:04;98750.09;;;12.02;65.76
61109;BME280;46995;55.740;37.402;2023-05-01T07:46:30;98755.59;;;12.08;65.80
61109;BME280;46995;55.740;37.402;2023-05-01T07:48:56;98752.81;;;12.26;65.81
61109;BME280;46995;55.740;37.402;2023-05-01T07:51:21;98759.44;;;12.30;63.74
61109;BME280;46995;55.740;37.402;2023-05-01T07:53:48;98764.72;;;12.22;63.88
61109;BME280;46995;55.740;37.402;2023-05-01T07:56:15;98771.19;;;12.19;64.39
61109;BME280;46995;55.740;37.402;2023-05-01T07:58:40;98774.97;;;12.17;63.83
61109;BME280;46995;55.740;37.402;2023-05-01T08:01:07;98776.94;;;12.15;63.83
61109;BME280;46995;55.740;37.402;2023-05-01T08:03:33;98784.03;;;12.14;62.73
61109;BME280;46995;55.740;37.402;2023-05-01T08:06:02;98765.75;;;11.87;63.21
61109;BME280;46995;55.740;37.402;2023-05-01T08:08:35;98744.63;;;11.69;62.54
61109;BME280;46995;55.740;37.402;2023-05-01T08:11:01;98796.06;;;11.93;62.74
61109;BME280;46995;55.740;37.402;2023-05-01T08:13:27;98808.25;;;11.85;62.78
61109;BME280;46995;55.740;37.402;2023-05-01T08:15:52;98808.03;;;11.79;62.88
61109;BME280;46995;55.740;37.402;2023-05-01T08:18:24;98811.66;;;11.78;63.20
61109;BME280;46995;55.740;37.402;2023-05-01T08:20:50;98793.91;;;11.70;62.93
61109;BME280;46995;55.740;37.402;2023-05-01T08:23:17;98816.03;;;11.87;62.69
61109;BME280;46995;55.740;37.402;2023-05-01T08:25:43;98794.22;;;11.67;62.63
61109;BME280;46995;55.740;37.402;2023-05-01T08:28:13;98794.16;;;11.51;60.63
61109;BME280;46995;55.740;37.402;2023-05-01T08:30:39;98800.44;;;11.32;62.12
61109;BME280;46995;55.740;37.402;2023-05-01T08:33:07;98803.41;;;11.29;62.49
61109;BME280;46995;55.740;37.402;2023-05-01T08:35:33;98814.88;;;11.38;62.22
61109;BME280;46995;55.740;37.402;2023-05-01T08:40:52;98772.78;;;11.19;61.65
61109;BME280;46995;55.740;37.402;2023-05-01T08:43:22;98833.38;;;11.64;61.47
61109;BME280;46995;55.740;37.402;2023-05-01T08:45:55;98846.88;;;11.78;61.23
61109;BME280;46995;55.740;37.402;2023-05-01T08:48:22;98779.00;;;11.35;60.93
61109;BME280;46995;55.740;37.402;2023-05-01T08:50:50;98855.34;;;11.82;61.22
61109;BME280;46995;55.740;37.402;2023-05-01T08:53:19;98843.19;;;11.71;60.30
61109;BME280;46995;55.740;37.402;2023-05-01T08:55:47;98847.09;;;11.67;61.15
61109;BME280;46995;55.740;37.402;2023-05-01T08:58:19;98845.63;;;11.65;60.74
61109;BME280;46995;55.740;37.402;2023-05-01T09:00:48;98859.97;;;11.62;61.21
61109;BME280;46995;55.740;37.402;2023-05-01T09:03:14;98855.38;;;11.64;61.09
61109;BME280;46995;55.740;37.402;2023-05-01T09:05:41;98836.75;;;11.48;61.18
61109;BME280;46995;55.740;37.402;2023-05-01T09:08:07;98862.97;;;11.67;61.33
61109;BME280;46995;55.740;37.402;2023-05-01T09:10:32;98868.22;;;11.59;61.49
61109;BME280;46995;55.740;37.402;2023-05-01T09:13:01;98872.22;;;11.63;61.63
61109;BME280;46995;55.740;37.402;2023-05-01T09:15:31;98870.03;;;11.59;61.63
61109;BME280;46995;55.740;37.402;2023-05-01T09:17:59;98868.84;;;11.53;61.28
61109;BME280;46995;55.740;37.402;2023-05-01T09:20:37;98866.81;;;11.47;61.15
61109;BME280;46995;55.740;37.402;2023-05-01T09:26:19;98837.56;;;11.05;62.12
61109;BME280;46995;55.740;37.402;2023-05-01T09:28:47;98837.34;;;10.98;61.78
61109;BME280;46995;55.740;37.402;2023-05-01T09:31:24;98891.47;;;11.30;61.09
61109;BME280;46995;55.740;37.402;2023-05-01T09:33:58;98889.56;;;11.22;60.93
61109;BME280;46995;55.740;37.402;2023-05-01T09:36:30;98887.72;;;11.15;61.64
61109;BME280;46995;55.740;37.402;2023-05-01T09:39:00;98878.50;;;11.19;61.55
61109;BME280;46995;55.740;37.402;2023-05-01T09:41:27;98871.78;;;11.24;61.45
61109;BME280;46995;55.740;37.402;2023-05-01T09:43:56;98875.75;;;11.46;61.33
61109;BME280;46995;55.740;37.402;2023-05-01T09:46:23;98883.41;;;11.57;60.13
61109;BME280;46995;55.740;37.402;2023-05-01T09:51:28;98856.69;;;10.99;61.04
61109;BME280;46995;55.740;37.402;2023-05-01T09:53:56;98907.03;;;10.97;61.51
61109;BME280;46995;55.740;37.402;2023-05-01T09:56:32;98907.81;;;10.80;62.94
61109;BME280;46995;55.740;37.402;2023-05-01T09:59:16;98909.69;;;10.70;63.41
61109;BME280;46995;55.740;37.402;2023-05-01T10:01:46;98907.84;;;10.53;63.43
61109;BME280;46995;55.740;37.402;2023-05-01T10:04:15;98907.63;;;10.37;63.59
61109;BME280;46995;55.740;37.402;2023-05-01T10:06:43;98930.16;;;10.41;63.73
61109;BME280;46995;55.740;37.402;2023-05-01T10:09:09;98938.78;;;10.33;64.29
61109;BME280;46995;55.740;37.402;2023-05-01T10:11:51;98937.03;;;10.14;65.33
61109;BME280;46995;55.740;37.402;2023-05-01T10:14:19;98947.44;;;10.06;65.36
61109;BME280;46995;55.740;37.402;2023-05-01T10:16:45;98937.50;;;9.81;65.39
61109;BME280;46995;55.740;37.402;2023-05-01T10:19:11;98938.91;;;9.66;66.37
61109;BME280;46995;55.740;37.402;2023-05-01T10:21:38;98966.09;;;9.76;66.12
61109;BME280;46995;55.740;37.402;2023-05-01T10:24:05;98981.63;;;9.79;65.91
61109;BME280;46995;55.740;37.402;2023-05-01T10:26:32;98908.56;;;9.23;66.60
61109;BME280;46995;55.740;37.402;2023-05-01T10:29:02;98956.69;;;9.35;66.73
61109;BME280;46995;55.740;37.402;2023-05-01T10:31:31;98986.66;;;9.44;66.71
61109;BME280;46995;55.740;37.402;2023-05-01T10:33:58;98981.78;;;9.39;66.47
61109;BME280;46995;55.740;37.402;2023-05-01T10:36:41;98987.19;;;9.38;66.29
61109;BME280;46995;55.740;37.402;2023-05-01T10:39:28;99006.63;;;9.37;66.92
61109;BME280;46995;55.740;37.402;2023-05-01T10:44:25;98997.94;;;8.96;66.91
61109;BME280;46995;55.740;37.402;2023-05-01T10:46:52;99003.75;;;8.90;66.99
61109;BME280;46995;55.740;37.402;2023-05-01T10:49:19;99025.66;;;8.90;66.89
61109;BME280;46995;55.740;37.402;2023-05-01T10:51:59;99032.56;;;8.82;67.75
61109;BME280;46995;55.740;37.402;2023-05-01T10:54:32;99011.16;;;8.66;68.64
61109;BME280;46995;55.740;37.402;2023-05-01T10:57:00;99027.47;;;8.60;68.33
61109;BME280;46995;55.740;37.402;2023-05-01T11:02:29;99056.78;;;8.45;68.65
61109;BME280;46995;55.740;37.402;2023-05-01T11:04:54;99059.75;;;8.31;68.47
61109;BME280;46995;55.740;37.402;2023-05-01T11:07:24;99064.84;;;8.12;69.74
61109;BME280;46995;55.740;37.402;2023-05-01T11:09:52;99049.25;;;7.79;70.98
61109;BME280;46995;55.740;37.402;2023-05-01T11:12:49;99076.47;;;7.78;73.50
61109;BME280;46995;55.740;37.402;2023-05-01T11:15:28;99076.72;;;7.75;73.62
61109;BME280;46995;55.740;37.402;2023-05-01T11:17:56;99080.81;;;7.68;72.51
61109;BME280;46995;55.740;37.402;2023-05-01T11:22:59;99083.94;;;7.61;71.89
61109;BME280;46995;55.740;37.402;2023-05-01T11:25:29;99079.91;;;7.57;71.72
61109;BME280;46995;55.740;37.402;2023-05-01T11:28:01;99097.34;;;7.58;71.91
61109;BME280;46995;55.740;37.402;2023-05-01T11:30:39;99115.97;;;7.44;73.28
61109;BME280;46995;55.740;37.402;2023-05-01T11:33:06;99095.97;;;7.32;73.25
61109;BME280;46995;55.740;37.402;2023-05-01T11:35:34;99120.75;;;7.50;73.47
61109;BME280;46995;55.740;37.402;2023-05-01T11:38:00;99117.66;;;7.45;72.81
61109;BME280;46995;55.740;37.402;2023-05-01T11:40:29;99119.63;;;7.21;74.80
61109;BME280;46995;55.740;37.402;2023-05-01T11:45:28;99127.97;;;7.04;75.45
61109;BME280;46995;55.740;37.402;2023-05-01T11:47:54;99127.97;;;7.04;76.17
61109;BME280;46995;55.740;37.402;2023-05-01T11:50:20;99153.88;;;7.19;75.73
61109;BME280;46995;55.740;37.402;2023-05-01T11:52:47;99149.94;;;7.14;75.98
61109;BME280;46995;55.740;37.402;2023-05-01T11:55:14;99154.47;;;7.01;76.46
61109;BME280;46995;55.740;37.402;2023-05-01T11:57:46;99160.41;;;6.92;76.72
61109;BME280;46995;55.740;37.402;2023-05-01T12:00:14;99158.41;;;6.84;76.27
61109;BME280;46995;55.740;37.402;2023-05-01T12:02:41;99171.53;;;6.84;75.86
61109;BME280;46995;55.740;37.402;2023-05-01T12:05:20;99179.84;;;6.78;76.19
61109;BME280;46995;55.740;37.402;2023-05-01T12:07:47;99159.94;;;6.64;77.80
61109;BME280;46995;55.740;37.402;2023-05-01T12:10:14;99179.47;;;6.71;79.21
61109;BME280;46995;55.740;37.402;2023-05-01T12:12:40;99166.34;;;6.60;79.77
61109;BME280;46995;55.740;37.402;2023-05-01T12:15:06;99172.56;;;6.70;80.21
61109;BME280;46995;55.740;37.402;2023-05-01T12:17:33;99178.19;;;6.77;79.21
61109;BME280;46995;55.740;37.402;2023-05-01T12:19:59;99182.13;;;6.82;80.17
61109;BME280;46995;55.740;37.402;2023-05-01T12:22:24;99191.44;;;6.98;79.02
61109;BME280;46995;55.740;37.402;2023-05-01T12:24:51;99178.19;;;6.88;78.71
61109;BME280;46995;55.740;37.402;2023-05-01T12:27:18;99179.53;;;6.94;78.73
61109;BME280;46995;55.740;37.402;2023-05-01T12:29:44;99191.22;;;7.12;77.84
61109;BME280;46995;55.740;37.402;2023-05-01T12:32:15;99189.56;;;7.00;77.04
61109;BME280;46995;55.740;37.402;2023-05-01T12:34:41;99192.06;;;7.01;78.30
61109;BME280;46995;55.740;37.402;2023-05-01T12:37:08;99207.34;;;7.18;78.50
61109;BME280;46995;55.740;37.402;2023-05-01T12:39:37;99192.06;;;7.12;78.25
61109;BME280;46995;55.740;37.402;2023-05-01T12:42:10;99212.47;;;7.20;78.16
61109;BME280;46995;55.740;37.402;2023-05-01T12:44:37;99220.13;;;7.23;77.56
61109;BME280;46995;55.740;37.402;2023-05-01T12:47:05;99221.78;;;7.24;77.19
61109;BME280;46995;55.740;37.402;2023-05-01T12:49:32;99232.28;;;7.24;76.91
61109;BME280;46995;55.740;37.402;2023-05-01T12:52:00;99231.34;;;7.25;76.85
61109;BME280;46995;55.740;37.402;2023-05-01T12:59:37;99217.59;;;7.55;75.26
61109;BME280;46995;55.740;37.402;2023-05-01T13:02:08;99229.44;;;7.60;74.43
61109;BME280;46995;55.740;37.402;2023-05-01T13:04:39;99239.94;;;7.49;75.24
61109;BME280;46995;55.740;37.402;2023-05-01T13:07:14;99246.50;;;7.44;75.35
61109;BME280;46995;55.740;37.402;2023-05-01T13:09:56;99245.91;;;7.62;nan
61109;BME280;46995;55.740;37.402;2023-05-01T13:12:23;99245.66;;;7.65;76.34
61109;BME280;46995;55.740;37.402;2023-05-01T13:14:50;99244.22;;;7.84;76.95
61109;BME280;46995;55.740;37.402;2023-05-01T13:17:29;99245.84;;;8.07;76.23
61109;BME280;46995;55.740;37.402;2023-05-01T13:19:57;99243.06;;;8.31;75.14
61109;BME280;46995;55.740;37.402;2023-05-01T13:22:36;99232.63;;;8.40;74.39
61109;BME280;46995;55.740;37.402;2023-05-01T13:25:04;99250.75;;;8.55;74.37
61109;BME280;46995;55.740;37.402;2023-05-01T13:27:39;99255.25;;;8.64;73.95
61109;BME280;46995;55.740;37.402;2023-05-01T13:30:06;99253.09;;;8.69;73.37
61109;BME280;46995;55.740;37.402;2023-05-01T13:32:32;99259.72;;;8.84;73.12
61109;BME280;46995;55.740;37.402;2023-05-01T13:35:01;99255.91;;;8.98;72.25
61109;BME280;46995;55.740;37.402;2023-05-01T13:37:28;99259.50;;;9.17;72.21
61109;BME280;46995;55.740;37.402;2023-05-01T13:39:55;99255.00;;;9.08;71.21
61109;BME280;46995;55.740;37.402;2023-05-01T13:42:24;99247.56;;;9.13;70.98
61109;BME280;46995;55.740;37.402;2023-05-01T13:44:52;99250.03;;;9.05;70.28
61109;BME280;46995;55.740;37.402;2023-05-01T13:47:18;99261.63;;;9.03;70.54
61109;BME280;46995;55.740;37.402;2023-05-01T13:49:50;99255.47;;;8.92;69.62
61109;BME280;46995;55.740;37.402;2023-05-01T13:52:17;99265.34;;;8.79;69.28
61109;BME280;46995;55.740;37.402;2023-05-01T13:54:44;99271.13;;;8.73;69.55
61109;BME280;46995;55.740;37.402;2023-05-01T13:57:15;99256.47;;;8.80;69.13
61109;BME280;46995;55.740;37.402;2023-05-01T13:59:44;99272.44;;;9.00;68.56
61109;BME280;46995;55.740;37.402;2023-05-01T14:02:24;99270.53;;;9.11;68.49
61109;BME280;46995;55.740;37.402;2023-05-01T14:04:51;99285.41;;;9.12;67.16
61109;BME280;46995;55.740;37.402;2023-05-01T14:07:19;99283.22;;;9.17;66.99
61109;BME280;46995;55.740;37.402;2023-05-01T14:12:17;99277.69;;;9.20;66.97
61109;BME280;46995;55.740;37.402;2023-05-01T14:14:47;99288.41;;;9.28;66.59
61109;BME280;46995;55.740;37.402;2023-05-01T14:17:14;99280.44;;;9.19;66.52
61109;BME280;46995;55.740;37.402;2023-05-01T14:19:39;99294.06;;;9.03;65.98
61109;BME280;46995;55.740;37.402;2023-05-01T14:22:08;99305.13;;;8.97;66.24
61109;BME280;46995;55.740;37.402;2023-05-01T14:24:36;99312.50;;;8.82;65.57
61109;BME280;46995;55.740;37.402;2023-05-01T14:27:07;99298.94;;;8.55;65.26
61109;BME280;46995;55.740;37.402;2023-05-01T14:29:41;99302.53;;;8.54;66.08
61109;BME280;46995;55.740;37.402;2023-05-01T14:32:12;99283.72;;;8.59;65.13
61109;BME280;46995;55.740;37.402;2023-05-01T14:34:43;99307.38;;;8.70;65.50
61109;BME280;46995;55.740;37.402;2023-05-01T14:37:11;99277.75;;;8.68;65.44
61109;BME280;46995;55.740;37.402;2023-05-01T14:39:39;99304.47;;;8.84;64.70
61109;BME280;46995;55.740;37.402;2023-05-01T14:42:05;99291.94;;;8.76;63.06
61109;BME280;46995;55.740;37.402;2023-05-01T14:44:31;99294.69;;;8.75;62.66
61109;BME280;46995;55.740;37.402;2023-05-01T14:46:56;99310.06;;;8.59;62.21
61109;BME280;46995;55.740;37.402;2023-05-01T14:49:24;99315.31;;;8.59;61.65
61109;BME280;46995;55.740;37.402;2023-05-01T14:51:51;99304.41;;;8.42;61.89
61109;BME280;46995;55.740;37.402;2023-05-01T14:54:18;99315.16;;;8.39;62.24
61109;BME280;46995;55.740;37.402;2023-05-01T14:56:46;99318.72;;;8.27;61.92
61109;BME280;46995;55.740;37.402;2023-05-01T14:59:12;99328.69;;;8.35;63.26
61109;BME280;46995;55.740;37.402;2023-05-01T15:01:38;99314.44;;;8.26;62.82
61109;BME280;46995;55.740;37.402;2023-05-01T15:04:04;99319.34;;;8.20;62.45
61109;BME280;46995;55.740;37.402;2023-05-01T15:06:32;99335.13;;;8.20;62.44
61109;BME280;46995;55.740;37.402;2023-05-01T15:08:58;99334.56;;;8.16;62.49
61109;BME280;46995;55.740;37.402;2023-05-01T15:11:25;99337.28;;;8.15;62.84
61109;BME280;46995;55.740;37.402;2023-05-01T15:13:51;99331.78;;;8.06;62.92
61109;BME280;46995;55.740;37.402;2023-05-01T15:16:17;99331.44;;;8.11;63.08
61109;BME280;46995;55.740;37.402;2023-05-01T15:18:46;99341.72;;;8.14;63.24
61109;BME280;46995;55.740;37.402;2023-05-01T15:21:12;99356.75;;;8.23;63.69
61109;BME280;46995;55.740;37.402;2023-05-01T15:23:38;99335.50;;;8.15;63.21
61109;BME280;46995;55.740;37.402;2023-05-01T15:26:09;99347.81;;;8.15;63.20
61109;BME280;46995;55.740;37.402;2023-05-01T15:28:35;99370.88;;;8.22;62.98
61109;BME280;46995;55.740;37.402;2023-05-01T15:31:01;99348.28;;;8.08;63.42
61109;BME280;46995;55.740;37.402;2023-05-01T15:33:27;99368.50;;;8.08;63.28
61109;BME280;46995;55.740;37.402;2023-05-01T15:35:52;99375.91;;;8.03;63.41
61109;BME280;46995;55.740;37.402;2023-05-01T15:38:18;99385.38;;;8.05;64.01